createdAt,value
2018-11-28T00:02:17.380Z,96099.00
2018-11-28T00:07:46.769Z,96101.00
2018-11-28T00:13:16.007Z,96092.00
2018-11-28T00:18:45.302Z,96096.00
2018-11-28T00:24:14.651Z,96096.00
2018-11-28T00:29:43.906Z,96093.00
2018-11-28T00:35:17.303Z,96097.00
2018-11-28T00:40:46.679Z,96110.00
2018-11-28T00:46:15.982Z,96109.00
2018-11-28T00:51:45.214Z,96105.00
2018-11-28T00:57:14.572Z,96111.00
2018-11-28T01:02:45.537Z,96120.00
2018-11-28T01:08:14.933Z,96117.00
2018-11-28T01:13:45.364Z,96128.00
2018-11-28T01:19:14.610Z,96127.00
2018-11-28T01:24:43.857Z,96126.00
2018-11-28T01:30:18.478Z,96123.00
2018-11-28T01:35:47.799Z,96120.00
2018-11-28T01:41:17.168Z,96129.00
2018-11-28T01:46:46.434Z,96126.00
2018-11-28T01:52:15.814Z,96124.00
2018-11-28T01:57:45.162Z,96127.00
2018-11-28T02:03:14.446Z,96125.00
2018-11-28T02:08:43.706Z,96122.00
2018-11-28T02:14:13.090Z,96135.00
2018-11-28T02:19:42.359Z,96134.00
2018-11-28T02:25:13.325Z,96139.00
2018-11-28T02:30:42.643Z,96141.00
2018-11-28T02:36:11.950Z,96152.00
2018-11-28T02:41:41.166Z,96154.00
2018-11-28T02:47:11.482Z,96147.00
2018-11-28T02:52:41.417Z,96139.00
2018-11-28T02:58:11.249Z,96153.00
2018-11-28T03:03:40.516Z,96161.00
2018-11-28T03:09:09.924Z,96162.00
2018-11-28T03:14:39.221Z,96147.00
2018-11-28T03:20:10.488Z,96161.00
2018-11-28T03:25:39.739Z,96163.00
2018-11-28T03:31:09.228Z,96175.00
2018-11-28T03:36:38.683Z,96157.00
2018-11-28T03:42:08.077Z,96167.00
2018-11-28T03:47:37.352Z,96163.00
2018-11-28T03:53:07.189Z,96172.00
2018-11-28T03:58:36.560Z,96176.00
2018-11-28T04:04:05.986Z,96176.00
2018-11-28T04:09:36.018Z,96175.00
2018-11-28T04:15:08.385Z,96183.00
2018-11-28T04:20:37.685Z,96172.00
2018-11-28T04:26:07.042Z,96176.00
2018-11-28T04:31:36.366Z,96170.00
2018-11-28T04:37:06.195Z,96173.00
2018-11-28T04:42:35.398Z,96180.00
2018-11-28T04:48:05.986Z,96180.00
2018-11-28T04:53:35.326Z,96187.00
2018-11-28T04:59:04.599Z,96184.00
2018-11-28T05:04:33.921Z,96200.00
2018-11-28T05:10:03.301Z,96193.00
2018-11-28T05:15:33.763Z,96195.00
2018-11-28T05:21:03.035Z,96183.00
2018-11-28T05:26:32.450Z,96194.00
2018-11-28T05:32:01.774Z,96192.00
2018-11-28T05:37:31.073Z,96197.00
2018-11-28T05:43:00.412Z,96209.00
2018-11-28T05:48:29.691Z,96218.00
2018-11-28T05:53:59.022Z,96227.00
2018-11-28T05:59:28.549Z,96227.00
2018-11-28T06:04:58.002Z,96229.00
2018-11-28T06:10:27.255Z,96219.00
2018-11-28T06:15:56.471Z,96228.00
2018-11-28T06:21:25.716Z,96234.00
2018-11-28T06:26:54.915Z,96241.00
2018-11-28T06:32:24.118Z,96254.00
2018-11-28T06:37:53.325Z,96252.00
2018-11-28T06:43:22.549Z,96251.00
2018-11-28T06:48:51.989Z,96256.00
2018-11-28T06:54:21.239Z,96262.00
2018-11-28T06:59:50.410Z,96263.00
2018-11-28T07:05:19.855Z,96270.00
2018-11-28T07:10:50.111Z,96276.00
2018-11-28T07:16:19.423Z,96282.00
2018-11-28T07:21:48.638Z,96282.00
2018-11-28T07:27:17.842Z,96279.00
2018-11-28T07:32:47.528Z,96289.00
2018-11-28T07:38:16.767Z,96292.00
2018-11-28T07:43:46.001Z,96289.00
2018-11-28T07:49:15.204Z,96297.00
2018-11-28T07:54:44.440Z,96308.00
2018-11-28T08:00:15.192Z,96294.00
2018-11-28T08:05:44.446Z,96300.00
2018-11-28T08:11:13.714Z,96305.00
2018-11-28T08:16:42.929Z,96305.00
2018-11-28T08:22:12.165Z,96310.00
2018-11-28T08:27:42.011Z,96316.00
2018-11-28T08:33:11.107Z,96324.00
2018-11-28T08:38:40.311Z,96320.00
2018-11-28T08:44:09.522Z,96314.00
2018-11-28T08:49:38.702Z,96321.00
2018-11-28T08:55:09.828Z,96323.00
2018-11-28T09:00:39.167Z,96333.00
2018-11-28T09:06:08.386Z,96325.00
2018-11-28T09:11:37.614Z,96334.00
2018-11-28T09:17:07.014Z,96326.00
2018-11-28T09:22:36.226Z,96333.00
2018-11-28T09:28:06.241Z,96350.00
2018-11-28T09:33:35.455Z,96344.00
2018-11-28T09:39:05.592Z,96351.00
2018-11-28T09:44:34.771Z,96345.00
2018-11-28T09:50:04.154Z,96341.00
2018-11-28T09:55:33.363Z,96353.00
2018-11-28T10:01:02.595Z,96348.00
2018-11-28T10:06:31.847Z,96347.00
2018-11-28T10:12:01.039Z,96354.00
2018-11-28T10:17:30.262Z,96346.00
2018-11-28T10:22:59.457Z,96341.00
2018-11-28T10:28:28.707Z,96339.00
2018-11-28T10:33:57.926Z,96333.00
2018-11-28T10:39:27.144Z,96344.00
2018-11-28T10:44:56.337Z,96332.00
2018-11-28T10:50:25.591Z,96325.00
2018-11-28T10:55:54.949Z,96329.00
2018-11-28T11:01:25.750Z,96329.00
2018-11-28T11:07:00.126Z,96339.00
2018-11-28T11:12:34.547Z,96340.00
2018-11-28T11:18:03.859Z,96344.00
2018-11-28T11:23:33.158Z,96340.00
2018-11-28T11:29:02.554Z,96344.00
2018-11-28T11:34:31.809Z,96326.00
2018-11-28T11:40:01.059Z,96329.00
2018-11-28T11:45:30.321Z,96325.00
2018-11-28T11:50:59.608Z,96317.00
2018-11-28T11:56:28.806Z,96317.00
2018-11-28T12:01:58.122Z,96311.00
2018-11-28T12:07:27.367Z,96323.00
2018-11-28T12:12:56.646Z,96323.00
2018-11-28T12:18:25.877Z,96310.00
2018-11-28T12:23:55.191Z,96304.00
2018-11-28T12:29:24.423Z,96314.00
2018-11-28T12:34:53.655Z,96313.00
2018-11-28T12:40:22.859Z,96315.00
2018-11-28T12:45:52.319Z,96316.00
2018-11-28T12:51:21.564Z,96311.00
2018-11-28T12:56:50.869Z,96299.00
2018-11-28T13:02:20.139Z,96302.00
2018-11-28T13:07:49.395Z,96299.00
2018-11-28T13:13:18.616Z,96291.00
2018-11-28T13:18:47.840Z,96296.00
2018-11-28T13:24:17.165Z,96300.00
2018-11-28T13:29:46.374Z,96285.00
2018-11-28T13:35:17.590Z,96290.00
2018-11-28T13:40:46.906Z,96284.00
2018-11-28T13:46:16.232Z,96278.00
2018-11-28T13:51:45.537Z,96289.00
2018-11-28T13:57:14.867Z,96297.00
2018-11-28T14:02:44.019Z,96303.00
2018-11-28T14:08:13.238Z,96306.00
2018-11-28T14:13:42.501Z,96313.00
2018-11-28T14:19:11.742Z,96316.00
2018-11-28T14:24:40.946Z,96325.00
2018-11-28T14:30:27.503Z,96322.00
2018-11-28T14:35:56.836Z,96322.00
2018-11-28T14:41:26.006Z,96322.00
2018-11-28T14:46:55.279Z,96327.00
2018-11-28T14:52:24.487Z,96322.00
2018-11-28T14:57:54.870Z,96334.00
2018-11-28T15:03:24.462Z,96332.00
2018-11-28T15:08:57.920Z,96328.00
2018-11-28T15:14:27.175Z,96322.00
2018-11-28T15:19:57.471Z,96316.00
2018-11-28T15:25:26.753Z,96314.00
2018-11-28T15:30:55.981Z,96318.00
2018-11-28T15:36:25.191Z,96323.00
2018-11-28T15:41:54.451Z,96315.00
2018-11-28T15:47:23.752Z,96317.00
2018-11-28T15:52:53.028Z,96322.00
2018-11-28T15:58:22.374Z,96327.00
2018-11-28T16:03:51.622Z,96342.00
2018-11-28T16:11:31.631Z,96343.00
2018-11-28T16:17:00.994Z,96351.00
2018-11-28T16:22:30.203Z,96352.00
2018-11-28T16:27:59.664Z,96358.00
2018-11-28T16:33:29.023Z,96361.00
2018-11-28T16:38:58.290Z,96350.00
2018-11-28T16:44:27.607Z,96362.00
2018-11-28T16:49:56.903Z,96341.00
2018-11-28T16:55:26.137Z,96353.00
2018-11-28T17:00:55.539Z,96354.00
2018-11-28T17:06:24.893Z,96348.00
2018-11-28T17:11:55.405Z,96353.00
2018-11-28T17:17:25.569Z,96359.00
2018-11-28T17:22:58.524Z,96365.00
2018-11-28T17:28:27.851Z,96375.00
2018-11-28T17:33:57.160Z,96367.00
2018-11-28T17:39:26.542Z,96362.00
2018-11-28T17:44:55.908Z,96364.00
2018-11-28T17:50:26.506Z,96370.00
2018-11-28T17:55:57.686Z,96371.00
2018-11-28T18:01:26.996Z,96370.00
2018-11-28T18:06:56.357Z,96367.00
2018-11-28T18:12:25.604Z,96366.00
2018-11-28T18:17:56.716Z,96356.00
2018-11-28T18:23:26.038Z,96355.00
2018-11-28T18:28:55.280Z,96352.00
2018-11-28T18:34:24.590Z,96350.00
2018-11-28T18:39:53.888Z,96349.00
2018-11-28T18:45:26.142Z,96361.00
2018-11-28T18:50:55.506Z,96363.00
2018-11-28T18:56:24.778Z,96355.00
2018-11-28T19:01:54.142Z,96358.00
2018-11-28T19:07:23.465Z,96363.00
2018-11-28T19:12:53.782Z,96344.00
2018-11-28T19:18:23.027Z,96353.00
2018-11-28T19:23:54.267Z,96363.00
2018-11-28T19:29:23.614Z,96361.00
2018-11-28T19:34:52.920Z,96360.00
2018-11-28T19:40:33.863Z,96358.00
2018-11-28T19:46:03.374Z,96349.00
2018-11-28T19:51:32.634Z,96363.00
2018-11-28T19:57:01.979Z,96350.00
2018-11-28T20:02:31.234Z,96353.00
2018-11-28T20:08:00.517Z,96343.00
2018-11-28T20:13:29.887Z,96353.00
2018-11-28T20:18:59.147Z,96346.00
2018-11-28T20:24:28.334Z,96342.00
2018-11-28T20:29:57.668Z,96349.00
2018-11-28T20:35:26.927Z,96340.00
2018-11-28T20:40:56.171Z,96340.00
2018-11-28T20:46:25.467Z,96333.00
2018-11-28T20:51:54.811Z,96335.00
2018-11-28T20:57:24.056Z,96333.00
2018-11-28T21:02:53.383Z,96324.00
2018-11-28T21:08:22.759Z,96337.00
2018-11-28T21:13:51.975Z,96345.00
2018-11-28T21:19:21.258Z,96349.00
2018-11-28T21:24:50.542Z,96357.00
2018-11-28T21:30:21.063Z,96350.00
2018-11-28T21:35:52.124Z,96360.00
2018-11-28T21:41:21.395Z,96354.00
2018-11-28T21:46:50.719Z,96348.00
2018-11-28T21:52:19.967Z,96366.00
2018-11-28T21:57:49.271Z,96392.00
2018-11-28T22:03:18.538Z,96389.00
2018-11-28T22:08:47.814Z,96385.00
2018-11-28T22:14:17.066Z,96347.00
2018-11-28T22:19:46.275Z,96349.00
2018-11-28T22:25:19.576Z,96353.00
2018-11-28T22:30:48.967Z,96348.00
2018-11-28T22:36:19.253Z,96341.00
2018-11-28T22:41:49.076Z,96342.00
2018-11-28T22:47:18.426Z,96341.00
2018-11-28T22:52:47.756Z,96344.00
2018-11-28T22:58:16.993Z,96352.00
2018-11-28T23:03:46.827Z,96351.00
2018-11-28T23:09:16.671Z,96350.00
2018-11-28T23:14:46.579Z,96348.00
2018-11-28T23:20:16.402Z,96362.00
2018-11-28T23:25:46.562Z,96339.00
2018-11-28T23:31:15.859Z,96333.00
2018-11-28T23:36:45.115Z,96327.00
2018-11-28T23:42:14.426Z,96309.00
2018-11-28T23:47:43.751Z,96292.00
2018-11-28T23:53:13.171Z,96295.00
2018-11-28T23:58:42.421Z,96289.00
